Time;durP1;ratioP1;P1;durP2;ratioP2;P2;SDS_P1;SDS_P2;PMS_P1;PMS_P2;Temp;Humidity;BMP_temperature;BMP_pressure;BME280_temperature;BME280_humidity;BME280_pressure;Samples;Min_cycle;Max_cycle;Signal;HPM_P1;HPM_P2
2021/10/19 00:02:05;;;;;;;33.55;20.92;;;;;;;;;;5016773;28;20026;-83
2021/10/19 00:04:31;;;;;;;33.65;20.52;;;;;;;;;;5017620;28;20022;-83
2021/10/19 00:06:57;;;;;;;30.10;20.38;;;;;;;;;;5003172;28;20026;-83
2021/10/19 00:09:23;;;;;;;32.08;20.80;;;;;;;;;;5020404;28;20102;-83
2021/10/19 00:11:49;;;;;;;32.45;20.48;;;;;;;;;;5020056;28;20044;-82
2021/10/19 00:14:15;;;;;;;29.17;20.02;;;;;;;;;;5020339;28;20029;-81
2021/10/19 00:16:42;;;;;;;28.67;19.80;;;;;;;;;;5002232;28;20049;-81
2021/10/19 00:19:08;;;;;;;32.05;20.58;;;;;;;;;;5002730;28;20432;-81
2021/10/19 00:21:34;;;;;;;31.42;20.52;;;;;;;;;;5019939;28;20036;-81
2021/10/19 00:24:00;;;;;;;31.40;19.45;;;;;;;;;;5002248;28;20168;-81
2021/10/19 00:26:26;;;;;;;33.47;20.67;;;;;;;;;;5019571;28;20072;-82
2021/10/19 00:28:52;;;;;;;32.67;20.33;;;;;;;;;;5019899;28;20029;-82
2021/10/19 00:31:18;;;;;;;31.25;20.05;;;;;;;;;;5019559;28;20028;-82
2021/10/19 00:33:44;;;;;;;28.77;19.42;;;;;;;;;;5034554;28;20044;-81
2021/10/19 00:36:10;;;;;;;34.53;20.90;;;;;;;;;;5049793;28;20446;-81
2021/10/19 00:38:36;;;;;;;27.10;18.77;;;;;;;;;;5055120;28;20056;-81
2021/10/19 00:41:02;;;;;;;28.33;19.23;;;;;;;;;;5039584;28;20021;-83
2021/10/19 00:43:28;;;;;;;31.83;20.40;;;;;;;;;;5039470;28;20057;-82
2021/10/19 00:45:55;;;;;;;37.72;19.77;;;;;;;;;;5039584;28;20026;-82
2021/10/19 00:48:24;;;;;;;26.15;19.05;;;;;;;;;;5021606;28;20382;-82
2021/10/19 00:50:51;;;;;;;27.17;18.23;;;;;;;;;;5034353;28;20026;-82
2021/10/19 00:53:17;;;;;;;31.10;19.42;;;;;;;;;;5019547;28;20081;-82
2021/10/19 00:55:43;;;;;;;29.33;19.30;;;;;;;;;;5001588;28;20172;-82
2021/10/19 00:58:10;;;;;;;28.38;18.67;;;;;;;;;;5002207;28;20032;-82
2021/10/19 01:00:36;;;;;;;29.98;19.35;;;;;;;;;;5019201;28;20033;-83
2021/10/19 01:03:02;;;;;;;30.05;18.45;;;;;;;;;;5001626;28;20061;-81
2021/10/19 01:05:28;;;;;;;26.95;19.25;;;;;;;;;;5019120;28;20109;-81
2021/10/19 01:07:54;;;;;;;28.52;18.63;;;;;;;;;;5019017;28;20113;-82
2021/10/19 01:10:20;;;;;;;27.58;19.13;;;;;;;;;;5001633;28;20038;-82
2021/10/19 01:12:47;;;;;;;30.73;19.02;;;;;;;;;;5019277;28;20072;-82
2021/10/19 01:15:14;;;;;;;29.60;19.00;;;;;;;;;;5019010;28;20030;-82
2021/10/19 01:17:44;;;;;;;31.20;18.75;;;;;;;;;;5019311;28;20375;-82
2021/10/19 01:20:23;;;;;;;29.30;19.17;;;;;;;;;;5019245;28;20041;-82
2021/10/19 01:22:50;;;;;;;29.40;18.38;;;;;;;;;;5001176;28;20042;-82
2021/10/19 01:25:16;;;;;;;29.10;17.85;;;;;;;;;;5001104;28;20435;-81
2021/10/19 01:27:54;;;;;;;31.60;18.27;;;;;;;;;;5025454;28;20124;-82
2021/10/19 01:30:20;;;;;;;31.42;20.00;;;;;;;;;;5038602;28;20339;-82
2021/10/19 01:32:47;;;;;;;31.17;20.00;;;;;;;;;;5021049;28;20029;-82
2021/10/19 01:35:13;;;;;;;32.67;19.48;;;;;;;;;;5038691;28;20040;-83
2021/10/19 01:37:39;;;;;;;28.35;18.13;;;;;;;;;;5038576;28;20064;-81
2021/10/19 01:40:09;;;;;;;26.17;17.77;;;;;;;;;;5020913;28;20022;-83
2021/10/19 01:45:40;;;;;;;29.83;18.83;;;;;;;;;;5038744;28;20037;-84
2021/10/19 01:48:06;;;;;;;31.48;18.85;;;;;;;;;;5021225;28;20026;-84
2021/10/19 01:50:32;;;;;;;28.33;18.73;;;;;;;;;;5038301;28;20017;-84
2021/10/19 01:52:58;;;;;;;27.42;17.98;;;;;;;;;;5038441;28;20105;-84
2021/10/19 01:55:24;;;;;;;31.52;19.48;;;;;;;;;;5038507;28;20025;-84
2021/10/19 01:58:10;;;;;;;42.10;24.45;;;;;;;;;;5037988;28;20424;-84
2021/10/19 02:00:36;;;;;;;39.40;24.02;;;;;;;;;;5038372;28;20109;-83
2021/10/19 02:03:06;;;;;;;46.97;27.90;;;;;;;;;;5037599;28;20064;-81
2021/10/19 02:05:32;;;;;;;40.95;26.17;;;;;;;;;;5037774;28;20057;-82
2021/10/19 02:08:00;;;;;;;45.78;27.10;;;;;;;;;;5038004;28;20031;-82
2021/10/19 02:10:26;;;;;;;40.05;25.60;;;;;;;;;;5020295;28;20033;-82
2021/10/19 02:13:12;;;;;;;47.53;25.25;;;;;;;;;;5020236;28;20029;-82
2021/10/19 02:15:39;;;;;;;37.95;23.98;;;;;;;;;;5037432;28;20031;-82
2021/10/19 02:18:06;;;;;;;34.72;22.23;;;;;;;;;;5037758;28;20041;-82
2021/10/19 02:20:32;;;;;;;42.08;23.38;;;;;;;;;;5037735;28;20017;-81
2021/10/19 02:22:58;;;;;;;38.63;22.55;;;;;;;;;;5037481;28;20021;-82
2021/10/19 02:25:25;;;;;;;30.75;21.05;;;;;;;;;;5020070;28;20318;-81
2021/10/19 02:27:51;;;;;;;32.35;21.05;;;;;;;;;;5027701;28;20050;-81
2021/10/19 02:30:17;;;;;;;34.15;21.63;;;;;;;;;;5017613;28;20021;-81
2021/10/19 02:32:44;;;;;;;34.13;20.52;;;;;;;;;;5017523;28;20037;-83
2021/10/19 02:35:11;;;;;;;33.95;20.67;;;;;;;;;;5017740;28;20054;-82
2021/10/19 02:37:37;;;;;;;31.23;20.30;;;;;;;;;;5017518;28;20064;-82
2021/10/19 02:40:04;;;;;;;31.02;19.73;;;;;;;;;;5017232;28;20109;-82
2021/10/19 02:42:30;;;;;;;28.88;20.23;;;;;;;;;;4999992;28;20030;-81
2021/10/19 02:44:56;;;;;;;28.77;19.75;;;;;;;;;;5017534;28;20431;-81
2021/10/19 02:47:22;;;;;;;32.15;20.52;;;;;;;;;;5017275;28;20073;-80
2021/10/19 02:49:48;;;;;;;30.25;20.15;;;;;;;;;;5017476;28;20035;-81
2021/10/19 02:52:14;;;;;;;35.75;21.67;;;;;;;;;;5017436;28;20022;-81
2021/10/19 02:54:40;;;;;;;28.90;19.73;;;;;;;;;;5017294;28;20454;-83
2021/10/19 02:57:08;;;;;;;31.30;20.02;;;;;;;;;;4999928;28;20026;-81
2021/10/19 02:59:34;;;;;;;30.15;20.98;;;;;;;;;;5017448;28;20029;-79
2021/10/19 03:02:00;;;;;;;32.83;20.40;;;;;;;;;;5017076;28;20034;-83
2021/10/19 03:04:26;;;;;;;33.40;19.85;;;;;;;;;;4999909;28;20025;-82
2021/10/19 03:06:52;;;;;;;32.20;20.80;;;;;;;;;;5017139;28;20319;-81
2021/10/19 03:09:18;;;;;;;28.33;19.05;;;;;;;;;;5017160;28;20535;-81
2021/10/19 03:12:21;;;;;;;30.75;19.48;;;;;;;;;;5017108;28;20026;-82
2021/10/19 03:14:47;;;;;;;33.03;19.85;;;;;;;;;;5017031;28;20049;-81
2021/10/19 03:17:13;;;;;;;32.75;20.65;;;;;;;;;;5017268;28;20026;-81
2021/10/19 03:19:39;;;;;;;35.83;21.02;;;;;;;;;;5017120;28;20026;-81
2021/10/19 03:22:06;;;;;;;29.05;20.40;;;;;;;;;;5017040;28;20037;-81
2021/10/19 03:24:32;;;;;;;30.95;20.95;;;;;;;;;;5017078;28;20393;-81
2021/10/19 03:26:58;;;;;;;32.00;20.25;;;;;;;;;;5017394;28;20435;-80
2021/10/19 03:29:25;;;;;;;34.40;20.92;;;;;;;;;;5036857;28;20061;-81
2021/10/19 03:31:51;;;;;;;34.60;20.30;;;;;;;;;;5019230;28;20032;-81
2021/10/19 03:34:18;;;;;;;32.03;21.02;;;;;;;;;;5019572;28;20309;-81
2021/10/19 03:36:44;;;;;;;32.70;20.73;;;;;;;;;;5018780;28;20029;-81
2021/10/19 03:39:10;;;;;;;32.67;20.15;;;;;;;;;;5036935;28;20116;-81
2021/10/19 03:41:54;;;;;;;34.33;21.17;;;;;;;;;;5040308;28;20027;-81
2021/10/19 03:44:20;;;;;;;29.92;20.00;;;;;;;;;;5022919;28;20025;-81
2021/10/19 03:46:46;;;;;;;29.73;20.17;;;;;;;;;;5040581;28;20033;-81
2021/10/19 03:49:12;;;;;;;28.90;19.92;;;;;;;;;;5040457;28;20021;-82
2021/10/19 03:51:38;;;;;;;28.48;19.35;;;;;;;;;;5040429;28;20052;-83
2021/10/19 03:54:04;;;;;;;27.20;19.50;;;;;;;;;;5040658;28;20026;-82
2021/10/19 03:56:30;;;;;;;33.15;19.55;;;;;;;;;;5039426;28;20423;-79
2021/10/19 03:58:56;;;;;;;33.28;20.08;;;;;;;;;;5039552;28;20033;-83
2021/10/19 04:01:23;;;;;;;28.67;19.85;;;;;;;;;;5040116;28;20033;-82
2021/10/19 04:03:49;;;;;;;31.25;19.92;;;;;;;;;;5039853;28;20025;-82
2021/10/19 04:06:15;;;;;;;31.67;19.90;;;;;;;;;;5039528;28;20423;-81
2021/10/19 04:08:41;;;;;;;29.52;19.08;;;;;;;;;;5039764;28;20056;-82
2021/10/19 04:11:08;;;;;;;30.60;19.67;;;;;;;;;;5022617;28;20029;-82
2021/10/19 04:13:34;;;;;;;33.35;19.67;;;;;;;;;;5040096;28;20033;-82
2021/10/19 04:16:01;;;;;;;31.05;19.42;;;;;;;;;;5039848;28;20030;-82
2021/10/19 04:18:27;;;;;;;31.75;20.58;;;;;;;;;;5040179;28;20343;-82
2021/10/19 04:20:55;;;;;;;30.20;19.88;;;;;;;;;;5040045;28;20028;-82
2021/10/19 04:23:21;;;;;;;31.50;20.08;;;;;;;;;;5040110;28;20045;-82
2021/10/19 04:25:47;;;;;;;34.17;20.13;;;;;;;;;;5022287;28;20419;-82
2021/10/19 04:28:13;;;;;;;36.42;21.33;;;;;;;;;;5039315;28;20534;-82
2021/10/19 04:30:39;;;;;;;47.13;29.83;;;;;;;;;;5039607;28;20316;-82
2021/10/19 04:33:05;;;;;;;56.50;35.15;;;;;;;;;;5039528;28;20404;-82
2021/10/19 04:35:31;;;;;;;49.97;34.13;;;;;;;;;;5039384;28;20033;-82
2021/10/19 04:37:57;;;;;;;55.42;32.95;;;;;;;;;;5039507;28;20116;-82
2021/10/19 04:40:23;;;;;;;49.20;30.27;;;;;;;;;;5039292;28;20030;-82
2021/10/19 04:42:49;;;;;;;56.72;30.83;;;;;;;;;;5039288;28;20407;-82
2021/10/19 04:45:16;;;;;;;190.77;86.80;;;;;;;;;;5039512;28;20032;-82
2021/10/19 04:47:43;;;;;;;78.78;41.63;;;;;;;;;;5021995;28;20023;-82
2021/10/19 04:50:09;;;;;;;48.60;31.13;;;;;;;;;;5038811;28;20025;-82
2021/10/19 04:52:35;;;;;;;49.22;30.13;;;;;;;;;;5021932;28;20061;-83
2021/10/19 04:55:01;;;;;;;41.60;26.42;;;;;;;;;;5039098;28;20056;-82
2021/10/19 04:57:27;;;;;;;39.88;25.27;;;;;;;;;;5039371;28;20030;-83
2021/10/19 04:59:53;;;;;;;77.25;46.58;;;;;;;;;;5038993;28;20028;-82
2021/10/19 05:02:19;;;;;;;96.22;59.22;;;;;;;;;;5008861;28;20304;-84
2021/10/19 05:04:46;;;;;;;186.02;118.03;;;;;;;;;;5021765;28;20331;-84
2021/10/19 05:07:12;;;;;;;137.77;90.65;;;;;;;;;;5035563;28;20049;-80
2021/10/19 05:09:38;;;;;;;104.63;68.55;;;;;;;;;;5011088;28;20036;-84
2021/10/19 05:12:04;;;;;;;98.22;65.03;;;;;;;;;;5037302;28;20079;-86
2021/10/19 05:17:52;;;;;;;76.65;49.08;;;;;;;;;;4939531;29;20032;-81
2021/10/19 05:20:18;;;;;;;78.22;48.83;;;;;;;;;;4939215;29;20118;-81
2021/10/19 05:22:44;;;;;;;91.38;50.72;;;;;;;;;;4939559;29;20031;-80
2021/10/19 05:25:12;;;;;;;99.75;53.72;;;;;;;;;;4923026;29;20043;-81
2021/10/19 05:27:38;;;;;;;117.10;55.35;;;;;;;;;;4939123;29;20043;-81
2021/10/19 05:30:06;;;;;;;104.22;55.10;;;;;;;;;;4939292;29;20357;-81
2021/10/19 05:32:32;;;;;;;110.32;56.10;;;;;;;;;;4939117;29;20028;-81
2021/10/19 05:34:58;;;;;;;103.57;53.75;;;;;;;;;;4939035;29;20039;-82
2021/10/19 05:37:24;;;;;;;93.63;50.88;;;;;;;;;;4923317;29;20459;-81
2021/10/19 05:39:50;;;;;;;135.68;57.72;;;;;;;;;;4938994;29;20042;-81
2021/10/19 05:42:17;;;;;;;149.82;62.83;;;;;;;;;;4938933;29;20036;-81
2021/10/19 05:44:43;;;;;;;105.85;48.85;;;;;;;;;;4938954;29;20043;-80
2021/10/19 05:47:09;;;;;;;101.57;44.88;;;;;;;;;;4938970;29;20144;-80
2021/10/19 05:49:35;;;;;;;86.57;44.63;;;;;;;;;;4923142;29;20034;-80
2021/10/19 05:52:01;;;;;;;86.95;44.05;;;;;;;;;;4942375;28;20060;-81
2021/10/19 05:54:28;;;;;;;89.80;45.92;;;;;;;;;;4998553;28;20072;-81
2021/10/19 05:56:55;;;;;;;57.95;33.22;;;;;;;;;;5020257;28;20061;-82
2021/10/19 05:59:21;;;;;;;50.80;29.38;;;;;;;;;;5037623;28;20021;-81
2021/10/19 06:01:47;;;;;;;49.28;28.23;;;;;;;;;;5037396;28;20025;-81
2021/10/19 06:04:13;;;;;;;48.15;27.83;;;;;;;;;;5037759;28;20097;-81
2021/10/19 06:06:40;;;;;;;51.85;30.48;;;;;;;;;;5037783;28;20026;-81
2021/10/19 06:09:07;;;;;;;56.55;29.92;;;;;;;;;;5037676;28;20045;-81
2021/10/19 06:11:34;;;;;;;50.45;29.33;;;;;;;;;;5037850;28;20104;-81
2021/10/19 06:14:00;;;;;;;52.33;27.73;;;;;;;;;;5037612;28;20035;-80
2021/10/19 06:16:27;;;;;;;48.72;28.70;;;;;;;;;;5037813;28;20033;-81
2021/10/19 06:18:53;;;;;;;48.42;28.55;;;;;;;;;;5037492;28;20017;-81
2021/10/19 06:21:19;;;;;;;62.78;36.78;;;;;;;;;;5037511;28;20104;-81
2021/10/19 06:23:45;;;;;;;203.38;136.45;;;;;;;;;;5037609;28;20096;-81
2021/10/19 06:26:11;;;;;;;161.65;104.78;;;;;;;;;;5037318;28;20021;-80
2021/10/19 06:28:38;;;;;;;130.73;88.43;;;;;;;;;;5037103;28;20049;-80
2021/10/19 06:31:04;;;;;;;131.88;87.70;;;;;;;;;;5037395;28;20026;-80
2021/10/19 06:33:30;;;;;;;124.03;80.93;;;;;;;;;;5037458;28;20037;-80
2021/10/19 06:35:56;;;;;;;108.35;74.95;;;;;;;;;;5036825;28;20025;-80
2021/10/19 06:38:22;;;;;;;94.85;61.92;;;;;;;;;;5037168;28;20049;-80
2021/10/19 06:40:48;;;;;;;92.05;54.65;;;;;;;;;;5019722;28;20029;-80
2021/10/19 06:43:14;;;;;;;69.50;46.10;;;;;;;;;;5037210;28;20064;-80
2021/10/19 06:45:40;;;;;;;86.25;49.70;;;;;;;;;;5037367;28;20067;-80
2021/10/19 06:48:06;;;;;;;77.18;46.15;;;;;;;;;;5037064;28;20030;-80
2021/10/19 06:50:32;;;;;;;59.45;34.17;;;;;;;;;;5036831;28;20036;-80
2021/10/19 06:52:58;;;;;;;55.75;33.35;;;;;;;;;;5019659;28;20033;-80
2021/10/19 06:55:24;;;;;;;49.55;31.60;;;;;;;;;;5037064;28;20036;-80
2021/10/19 06:57:51;;;;;;;54.05;31.77;;;;;;;;;;5019607;28;20065;-78
2021/10/19 07:00:18;;;;;;;47.88;30.77;;;;;;;;;;5036270;28;20025;-80
2021/10/19 07:02:45;;;;;;;41.17;25.80;;;;;;;;;;5017179;28;20050;-80
2021/10/19 07:05:11;;;;;;;45.90;26.33;;;;;;;;;;5017081;28;20029;-80
2021/10/19 07:07:39;;;;;;;43.80;26.20;;;;;;;;;;5016964;28;20423;-80
2021/10/19 07:10:06;;;;;;;36.78;23.60;;;;;;;;;;5017839;28;20312;-79
2021/10/19 07:12:32;;;;;;;39.42;25.05;;;;;;;;;;5016950;28;20029;-80
2021/10/19 07:14:59;;;;;;;70.80;37.00;;;;;;;;;;5002981;28;20418;-80
2021/10/19 07:17:25;;;;;;;92.47;42.22;;;;;;;;;;5003366;28;20044;-80
2021/10/19 07:19:51;;;;;;;70.57;36.72;;;;;;;;;;5020795;28;20018;-80
2021/10/19 07:22:17;;;;;;;55.15;29.42;;;;;;;;;;5021066;28;20033;-79
2021/10/19 07:24:43;;;;;;;49.33;26.20;;;;;;;;;;5021192;28;20029;-80
2021/10/19 07:27:09;;;;;;;45.63;26.58;;;;;;;;;;5003141;28;20026;-80
2021/10/19 07:29:35;;;;;;;58.90;31.25;;;;;;;;;;5020933;28;20050;-80
2021/10/19 07:32:01;;;;;;;44.13;26.15;;;;;;;;;;5020843;28;20022;-79
2021/10/19 07:34:28;;;;;;;36.63;24.48;;;;;;;;;;5020867;28;20021;-80
2021/10/19 07:36:54;;;;;;;41.47;26.40;;;;;;;;;;5020738;28;20108;-79
2021/10/19 07:39:20;;;;;;;41.25;25.20;;;;;;;;;;5020773;28;20021;-80
2021/10/19 07:41:46;;;;;;;42.42;24.63;;;;;;;;;;5020576;28;20022;-80
2021/10/19 07:44:12;;;;;;;35.63;24.55;;;;;;;;;;5002893;28;20022;-80
2021/10/19 07:46:38;;;;;;;37.38;26.10;;;;;;;;;;5020592;28;20030;-80
2021/10/19 07:49:04;;;;;;;36.05;21.55;;;;;;;;;;5020654;28;20463;-79
2021/10/19 07:51:30;;;;;;;37.63;22.35;;;;;;;;;;5020250;28;20034;-79
2021/10/19 07:53:56;;;;;;;30.33;20.60;;;;;;;;;;5020819;28;20301;-79
2021/10/19 07:56:22;;;;;;;52.58;29.60;;;;;;;;;;5020503;28;20289;-79
2021/10/19 07:58:49;;;;;;;85.45;49.00;;;;;;;;;;5020502;28;20026;-79
2021/10/19 08:01:15;;;;;;;63.10;38.03;;;;;;;;;;5020235;28;20068;-79
2021/10/19 08:03:41;;;;;;;67.97;39.58;;;;;;;;;;5002643;28;20399;-79
2021/10/19 08:06:07;;;;;;;53.63;32.78;;;;;;;;;;5020267;28;20026;-79
2021/10/19 08:08:37;;;;;;;47.67;29.83;;;;;;;;;;5020266;28;20026;-79
2021/10/19 08:11:04;;;;;;;47.13;29.60;;;;;;;;;;5002839;28;20030;-79
2021/10/19 08:13:30;;;;;;;47.13;28.95;;;;;;;;;;5020099;28;20113;-79
2021/10/19 08:15:56;;;;;;;40.33;25.25;;;;;;;;;;5002740;28;20030;-79
2021/10/19 08:18:22;;;;;;;40.22;27.20;;;;;;;;;;5020016;28;20404;-80
2021/10/19 08:20:48;;;;;;;43.33;27.73;;;;;;;;;;5002377;28;20044;-79
2021/10/19 08:23:15;;;;;;;43.50;26.17;;;;;;;;;;5019867;28;20022;-79
2021/10/19 08:25:42;;;;;;;36.33;24.77;;;;;;;;;;5019150;28;20026;-80
2021/10/19 08:28:08;;;;;;;50.50;23.92;;;;;;;;;;5019351;28;20325;-79
2021/10/19 08:30:34;;;;;;;42.80;25.70;;;;;;;;;;5019668;28;20030;-79
2021/10/19 08:33:01;;;;;;;43.55;26.75;;;;;;;;;;5019773;28;20029;-80
2021/10/19 08:35:27;;;;;;;44.03;26.88;;;;;;;;;;5019593;28;20363;-80
2021/10/19 08:37:53;;;;;;;48.40;28.58;;;;;;;;;;5019495;28;20078;-80
2021/10/19 08:40:20;;;;;;;36.38;23.45;;;;;;;;;;5019429;28;20343;-80
2021/10/19 08:42:47;;;;;;;42.47;25.38;;;;;;;;;;5019458;28;20446;-79
2021/10/19 08:45:17;;;;;;;47.38;24.67;;;;;;;;;;5001547;28;20034;-80
2021/10/19 08:47:43;;;;;;;39.38;23.98;;;;;;;;;;5019587;28;20033;-80
2021/10/19 08:50:10;;;;;;;34.47;20.75;;;;;;;;;;5019180;28;20054;-80
2021/10/19 08:52:36;;;;;;;35.03;21.15;;;;;;;;;;4985498;28;20034;-79
2021/10/19 08:55:03;;;;;;;37.00;22.38;;;;;;;;;;5001491;28;20085;-80
2021/10/19 08:57:29;;;;;;;39.50;20.73;;;;;;;;;;5001892;28;20026;-80
2021/10/19 08:59:55;;;;;;;28.05;18.50;;;;;;;;;;5001545;28;20351;-80
2021/10/19 09:02:34;;;;;;;29.20;19.15;;;;;;;;;;5019159;28;20022;-80
2021/10/19 09:05:00;;;;;;;31.85;18.88;;;;;;;;;;5001810;28;20037;-80
2021/10/19 09:07:29;;;;;;;35.72;19.88;;;;;;;;;;5019372;28;20105;-80
2021/10/19 09:09:55;;;;;;;29.40;17.73;;;;;;;;;;5018972;28;20416;-81
2021/10/19 09:12:24;;;;;;;24.75;16.80;;;;;;;;;;5018949;28;20041;-80
2021/10/19 09:14:50;;;;;;;36.83;22.17;;;;;;;;;;5018989;28;20030;-81
2021/10/19 09:17:17;;;;;;;24.73;16.70;;;;;;;;;;5018887;28;20021;-81
2021/10/19 09:19:45;;;;;;;26.00;16.52;;;;;;;;;;5018870;28;20026;-80
2021/10/19 09:22:12;;;;;;;28.52;16.25;;;;;;;;;;5018950;28;20062;-80
2021/10/19 09:24:42;;;;;;;22.42;15.73;;;;;;;;;;5018765;28;20021;-80
2021/10/19 09:27:10;;;;;;;21.27;14.43;;;;;;;;;;5018505;28;20100;-81
2021/10/19 09:29:46;;;;;;;23.75;15.63;;;;;;;;;;5018695;28;20034;-80
2021/10/19 09:32:13;;;;;;;30.00;16.77;;;;;;;;;;5018593;28;20022;-80
2021/10/19 09:34:41;;;;;;;22.77;14.88;;;;;;;;;;5001144;28;20028;-80
2021/10/19 09:37:09;;;;;;;23.90;15.55;;;;;;;;;;5018693;28;20030;-80
2021/10/19 09:39:36;;;;;;;24.38;15.65;;;;;;;;;;5018360;28;20098;-80
2021/10/19 09:42:03;;;;;;;23.10;15.20;;;;;;;;;;5000959;28;20018;-80
2021/10/19 09:44:30;;;;;;;20.80;14.15;;;;;;;;;;5018481;28;20116;-81
2021/10/19 09:46:56;;;;;;;20.20;12.65;;;;;;;;;;5001075;28;20412;-80
2021/10/19 09:49:23;;;;;;;18.48;12.68;;;;;;;;;;5018440;28;20026;-80
2021/10/19 09:51:49;;;;;;;20.05;13.38;;;;;;;;;;5018315;28;20022;-80
2021/10/19 09:54:21;;;;;;;20.75;14.27;;;;;;;;;;5018356;28;20107;-81
2021/10/19 09:56:47;;;;;;;22.23;13.65;;;;;;;;;;5018318;28;20109;-80
2021/10/19 09:59:14;;;;;;;21.13;14.18;;;;;;;;;;5018116;28;20026;-81
2021/10/19 10:01:41;;;;;;;18.33;12.50;;;;;;;;;;5018228;28;20102;-80
2021/10/19 10:04:08;;;;;;;15.13;10.70;;;;;;;;;;5018187;28;20022;-80
2021/10/19 10:06:34;;;;;;;15.60;9.93;;;;;;;;;;5018241;28;20030;-81
2021/10/19 10:09:01;;;;;;;13.18;9.55;;;;;;;;;;5018020;28;20059;-81
2021/10/19 10:11:27;;;;;;;14.63;8.02;;;;;;;;;;5018030;28;20029;-80
2021/10/19 10:14:03;;;;;;;12.10;8.70;;;;;;;;;;5017918;28;20041;-81
2021/10/19 10:16:30;;;;;;;14.20;9.45;;;;;;;;;;5017737;28;20022;-81
2021/10/19 10:18:56;;;;;;;15.50;11.15;;;;;;;;;;5017728;28;20030;-81
2021/10/19 10:21:24;;;;;;;25.05;16.38;;;;;;;;;;5017740;28;20025;-81
2021/10/19 10:24:00;;;;;;;19.85;12.38;;;;;;;;;;5000061;28;20355;-80
2021/10/19 10:26:27;;;;;;;14.93;11.30;;;;;;;;;;5017745;28;20038;-80
2021/10/19 10:28:53;;;;;;;22.70;13.60;;;;;;;;;;4999924;28;20054;-81
2021/10/19 10:31:21;;;;;;;32.38;22.38;;;;;;;;;;4999856;28;20038;-81
2021/10/19 10:33:49;;;;;;;41.28;27.10;;;;;;;;;;5017751;28;20104;-80
2021/10/19 10:36:16;;;;;;;30.77;19.65;;;;;;;;;;5017523;28;20427;-80
2021/10/19 10:38:53;;;;;;;37.72;24.02;;;;;;;;;;4999961;28;20030;-81
2021/10/19 10:41:19;;;;;;;83.65;58.63;;;;;;;;;;5017636;28;20065;-81
2021/10/19 10:43:56;;;;;;;43.05;28.15;;;;;;;;;;4999543;28;20033;-81
2021/10/19 10:46:23;;;;;;;29.90;17.83;;;;;;;;;;5017398;28;20029;-81
2021/10/19 10:48:49;;;;;;;24.85;16.70;;;;;;;;;;4999676;28;20026;-80
2021/10/19 10:51:24;;;;;;;22.88;16.75;;;;;;;;;;5017472;28;20022;-80
2021/10/19 10:53:50;;;;;;;31.25;19.05;;;;;;;;;;5017323;28;20030;-80
2021/10/19 10:56:17;;;;;;;21.95;14.15;;;;;;;;;;4999421;28;20034;-80
2021/10/19 10:58:44;;;;;;;18.48;12.35;;;;;;;;;;5017210;28;20045;-80
2021/10/19 11:01:17;;;;;;;20.13;14.00;;;;;;;;;;4999919;28;20017;-81
2021/10/19 11:03:44;;;;;;;16.98;11.48;;;;;;;;;;4999400;28;20033;-80
2021/10/19 11:06:18;;;;;;;17.67;10.48;;;;;;;;;;4999693;28;20029;-79
2021/10/19 11:08:45;;;;;;;16.23;10.43;;;;;;;;;;5017131;28;20037;-79
2021/10/19 11:11:15;;;;;;;18.48;10.88;;;;;;;;;;5017049;28;20026;-79
2021/10/19 11:13:45;;;;;;;16.33;10.32;;;;;;;;;;5017164;28;20049;-79
2021/10/19 11:16:11;;;;;;;17.15;11.27;;;;;;;;;;5016900;28;20030;-80
2021/10/19 11:18:37;;;;;;;20.67;12.82;;;;;;;;;;4999688;28;20057;-79
2021/10/19 11:21:03;;;;;;;16.98;9.70;;;;;;;;;;5017103;28;20025;-81
2021/10/19 11:23:29;;;;;;;12.70;8.50;;;;;;;;;;4999804;28;20121;-80
2021/10/19 11:25:58;;;;;;;15.57;9.20;;;;;;;;;;4998835;28;20085;-81
2021/10/19 11:28:24;;;;;;;13.32;9.13;;;;;;;;;;5016790;28;20061;-80
2021/10/19 11:30:50;;;;;;;12.18;8.48;;;;;;;;;;5016515;28;20388;-80
2021/10/19 11:33:17;;;;;;;13.35;8.50;;;;;;;;;;5016854;28;20420;-80
2021/10/19 11:35:43;;;;;;;13.68;9.23;;;;;;;;;;5016874;28;20034;-80
2021/10/19 11:38:09;;;;;;;16.08;8.77;;;;;;;;;;5016831;28;20022;-80
2021/10/19 11:40:35;;;;;;;14.38;8.75;;;;;;;;;;5016719;28;20300;-80
2021/10/19 11:43:02;;;;;;;14.07;8.90;;;;;;;;;;5016807;28;20034;-80
2021/10/19 11:45:29;;;;;;;13.75;9.38;;;;;;;;;;5016736;28;20030;-80
2021/10/19 11:47:57;;;;;;;10.65;7.47;;;;;;;;;;5016732;28;20030;-80
2021/10/19 11:50:33;;;;;;;12.65;8.23;;;;;;;;;;5016957;28;20073;-80
2021/10/19 11:53:04;;;;;;;10.30;7.68;;;;;;;;;;4999037;28;20116;-80
2021/10/19 11:55:32;;;;;;;14.18;9.43;;;;;;;;;;5016650;28;20026;-80
2021/10/19 11:57:58;;;;;;;16.15;8.93;;;;;;;;;;4999324;28;20054;-80
2021/10/19 12:00:24;;;;;;;10.73;7.68;;;;;;;;;;5017681;28;20018;-79
2021/10/19 12:02:51;;;;;;;10.80;7.43;;;;;;;;;;5020275;28;20405;-79
2021/10/19 12:05:18;;;;;;;11.18;7.47;;;;;;;;;;5020280;28;20030;-79
2021/10/19 12:07:51;;;;;;;13.85;8.13;;;;;;;;;;5020162;28;20022;-80
2021/10/19 12:10:21;;;;;;;12.02;8.77;;;;;;;;;;5020263;28;20033;-80
2021/10/19 12:12:51;;;;;;;12.18;7.65;;;;;;;;;;5002768;28;20034;-80
2021/10/19 12:15:21;;;;;;;11.27;7.22;;;;;;;;;;5020012;28;20033;-79
2021/10/19 12:17:53;;;;;;;10.82;7.90;;;;;;;;;;5002667;28;20033;-79
2021/10/19 12:20:19;;;;;;;14.40;10.38;;;;;;;;;;5020078;28;20408;-79
2021/10/19 12:22:45;;;;;;;10.95;7.22;;;;;;;;;;5019966;28;20105;-80
2021/10/19 12:25:11;;;;;;;12.45;7.07;;;;;;;;;;5019788;28;20029;-80
2021/10/19 12:27:38;;;;;;;11.68;8.02;;;;;;;;;;5019824;28;20046;-80
2021/10/19 12:30:10;;;;;;;15.35;8.57;;;;;;;;;;5002364;28;20026;-80
2021/10/19 12:32:39;;;;;;;16.42;9.55;;;;;;;;;;5019663;28;20025;-79
2021/10/19 12:35:05;;;;;;;14.82;8.52;;;;;;;;;;5019700;28;20026;-80
2021/10/19 12:37:32;;;;;;;12.02;7.90;;;;;;;;;;5019566;28;20018;-80
2021/10/19 12:40:00;;;;;;;19.15;11.88;;;;;;;;;;5019759;28;20326;-80
2021/10/19 12:42:26;;;;;;;15.57;9.02;;;;;;;;;;5019438;28;20417;-80
2021/10/19 12:44:52;;;;;;;11.15;8.23;;;;;;;;;;5019656;28;20033;-80
2021/10/19 12:47:19;;;;;;;16.70;11.82;;;;;;;;;;5019569;28;20324;-80
2021/10/19 12:49:45;;;;;;;14.93;8.77;;;;;;;;;;5019335;28;20022;-79
2021/10/19 12:52:11;;;;;;;17.60;10.02;;;;;;;;;;5019298;28;20025;-80
2021/10/19 12:54:37;;;;;;;18.35;10.18;;;;;;;;;;5019308;28;20018;-78
2021/10/19 12:57:03;;;;;;;30.58;20.55;;;;;;;;;;5001564;28;20450;-78
2021/10/19 12:59:29;;;;;;;17.17;11.55;;;;;;;;;;5019332;28;20038;-78
2021/10/19 13:01:58;;;;;;;29.17;15.80;;;;;;;;;;5001515;28;20030;-78
2021/10/19 13:04:25;;;;;;;26.08;15.80;;;;;;;;;;5019160;28;20102;-79
2021/10/19 13:06:51;;;;;;;22.95;12.98;;;;;;;;;;5001552;28;20344;-80
2021/10/19 13:09:18;;;;;;;55.92;28.70;;;;;;;;;;5019127;28;20021;-80
2021/10/19 13:11:44;;;;;;;72.43;38.17;;;;;;;;;;5018803;28;20316;-80
2021/10/19 13:14:10;;;;;;;47.40;26.33;;;;;;;;;;5019133;28;20030;-80
2021/10/19 13:16:36;;;;;;;50.53;27.80;;;;;;;;;;5018931;28;20030;-80
2021/10/19 13:19:03;;;;;;;45.50;25.23;;;;;;;;;;5018820;28;20129;-80
2021/10/19 13:21:29;;;;;;;53.03;27.33;;;;;;;;;;5018742;28;20466;-80
2021/10/19 13:23:55;;;;;;;17.92;11.27;;;;;;;;;;5001425;28;20173;-80
2021/10/19 13:26:22;;;;;;;44.72;26.88;;;;;;;;;;5001208;28;20025;-80
2021/10/19 13:28:48;;;;;;;11.52;7.40;;;;;;;;;;5018465;28;20050;-81
2021/10/19 13:31:14;;;;;;;15.52;8.07;;;;;;;;;;5018497;28;20052;-80
2021/10/19 13:33:40;;;;;;;9.35;6.97;;;;;;;;;;5018640;28;20104;-80
2021/10/19 13:36:06;;;;;;;9.15;6.85;;;;;;;;;;5018534;28;20431;-79
2021/10/19 13:38:33;;;;;;;9.35;7.07;;;;;;;;;;5018964;28;20026;-80
2021/10/19 13:40:59;;;;;;;10.52;6.85;;;;;;;;;;5011917;28;20042;-80
2021/10/19 13:43:26;;;;;;;9.88;7.10;;;;;;;;;;5020608;28;20057;-80
2021/10/19 13:45:52;;;;;;;17.40;7.47;;;;;;;;;;5038181;28;20403;-80
2021/10/19 13:48:19;;;;;;;10.57;7.05;;;;;;;;;;5038277;28;20304;-80
2021/10/19 13:50:47;;;;;;;11.88;6.85;;;;;;;;;;5020445;28;20033;-80
2021/10/19 13:53:13;;;;;;;11.90;7.05;;;;;;;;;;5038237;28;20048;-81
2021/10/19 13:55:39;;;;;;;10.23;7.05;;;;;;;;;;5038093;28;20052;-80
2021/10/19 13:58:05;;;;;;;11.05;5.70;;;;;;;;;;5038108;28;20030;-80
2021/10/19 14:00:31;;;;;;;11.35;7.80;;;;;;;;;;5020460;28;20069;-80
2021/10/19 14:02:58;;;;;;;10.90;7.68;;;;;;;;;;5037807;28;20289;-81
2021/10/19 14:05:24;;;;;;;16.58;7.35;;;;;;;;;;5037945;28;20033;-80
2021/10/19 14:07:50;;;;;;;10.43;6.80;;;;;;;;;;5037844;28;20104;-80
2021/10/19 14:10:17;;;;;;;10.10;7.60;;;;;;;;;;5037705;28;20021;-80
2021/10/19 14:12:44;;;;;;;13.70;7.50;;;;;;;;;;5020172;28;20029;-80
2021/10/19 14:15:10;;;;;;;10.80;8.00;;;;;;;;;;5037641;28;20110;-81
2021/10/19 14:17:36;;;;;;;11.93;8.45;;;;;;;;;;5037702;28;20021;-81
2021/10/19 14:20:03;;;;;;;9.63;7.03;;;;;;;;;;5020041;28;20030;-81
2021/10/19 14:22:29;;;;;;;12.38;6.80;;;;;;;;;;5037007;28;20022;-81
2021/10/19 14:24:55;;;;;;;11.32;8.10;;;;;;;;;;5037015;28;20430;-81